WTB74P MYNN-MTPP
Flight info
| Callsign | WTB74P |
|---|---|
| Flight time | 1h 15m |
| Altitude | 35000 |
| Route | BOSAR DCT KNSLY DCT JOSES/N0399F230 A315 SAVAR SAVAR1C |
| Aircraft | A321/M-SDE3FGHIRWY/LB1 |
Departure
| Time | 2026-04-20 18:31 |
|---|---|
| Airport | Lynden Pindling International Airport (MYNN) |
Arrival
| Time | 2026-04-20 19:46 |
|---|---|
| Airport | Toussaint Louverture International Airport (MTPP) |
| Time | Latitude | Longitude | Altitude | Speed | Heading |
|---|---|---|---|---|---|
| 2026-04-20 17:31 | 25.05050 | -77.46887 | 13 ft | 0 kts | 352° |
| 2026-04-20 18:20 | 25.05033 | -77.46885 | 13 ft | 4 kts | 352° |
| 2026-04-20 18:21 | 25.05007 | -77.46879 | 14 ft | 4 kts | 341° |
| 2026-04-20 18:21 | 25.04988 | -77.46868 | 13 ft | 4 kts | 279° |
| 2026-04-20 18:21 | 25.04987 | -77.46861 | 13 ft | 0 kts | 246° |
| 2026-04-20 18:24 | 25.04983 | -77.46870 | 12 ft | 4 kts | 245° |
| 2026-04-20 18:24 | 25.04976 | -77.46886 | 13 ft | 2 kts | 239° |
| 2026-04-20 18:24 | 25.04933 | -77.46917 | 12 ft | 12 kts | 204° |
| 2026-04-20 18:25 | 25.04918 | -77.46925 | 12 ft | 0 kts | 207° |
| 2026-04-20 18:25 | 25.04900 | -77.46947 | 12 ft | 6 kts | 245° |
| 2026-04-20 18:26 | 25.04907 | -77.46993 | 12 ft | 10 kts | 301° |
| 2026-04-20 18:26 | 25.04979 | -77.47077 | 12 ft | 16 kts | 315° |
| 2026-04-20 18:26 | 25.05053 | -77.47162 | 12 ft | 15 kts | 313° |
| 2026-04-20 18:26 | 25.05123 | -77.47238 | 12 ft | 14 kts | 315° |
| 2026-04-20 18:27 | 25.05187 | -77.47309 | 12 ft | 12 kts | 313° |
| 2026-04-20 18:27 | 25.05222 | -77.47386 | 12 ft | 11 kts | 276° |
| 2026-04-20 18:27 | 25.05220 | -77.47418 | 12 ft | 0 kts | 259° |
| 2026-04-20 18:28 | 25.05212 | -77.47451 | 13 ft | 11 kts | 253° |
| 2026-04-20 18:28 | 25.05163 | -77.47510 | 12 ft | 10 kts | 192° |
| 2026-04-20 18:29 | 25.05124 | -77.47494 | 12 ft | 0 kts | 141° |
| 2026-04-20 18:30 | 25.05096 | -77.47466 | 11 ft | 26 kts | 136° |
| 2026-04-20 18:30 | 25.04791 | -77.47125 | 14 ft | 95 kts | 135° |
| 2026-04-20 18:30 | 25.04190 | -77.46462 | 10 ft | 147 kts | 135° |
| 2026-04-20 18:30 | 25.03369 | -77.45560 | 91 ft | 180 kts | 132° |
| 2026-04-20 18:31 | 25.02479 | -77.44599 | 727 ft | 179 kts | 131° |
| 2026-04-20 18:31 | 25.01656 | -77.43489 | 951 ft | 196 kts | 125° |
| 2026-04-20 18:31 | 25.00830 | -77.42221 | 1088 ft | 212 kts | 123° |
| 2026-04-20 18:31 | 24.99957 | -77.40844 | 1249 ft | 227 kts | 124° |
| 2026-04-20 18:32 | 24.99009 | -77.39348 | 1370 ft | 251 kts | 124° |
| 2026-04-20 18:32 | 24.97982 | -77.37741 | 1936 ft | 259 kts | 124° |
| 2026-04-20 18:32 | 24.96934 | -77.36106 | 2645 ft | 263 kts | 124° |
| 2026-04-20 18:32 | 24.95872 | -77.34456 | 3349 ft | 266 kts | 124° |
| 2026-04-20 18:33 | 24.94794 | -77.32787 | 4045 ft | 269 kts | 124° |
| 2026-04-20 18:33 | 24.93703 | -77.31103 | 4751 ft | 272 kts | 124° |
| 2026-04-20 18:33 | 24.92593 | -77.29393 | 5412 ft | 276 kts | 125° |
| 2026-04-20 18:33 | 24.91472 | -77.27664 | 6080 ft | 279 kts | 125° |
| 2026-04-20 18:34 | 24.90335 | -77.25912 | 6718 ft | 283 kts | 125° |
| 2026-04-20 18:34 | 24.89181 | -77.24132 | 7324 ft | 287 kts | 125° |
| 2026-04-20 18:34 | 24.88015 | -77.22331 | 7970 ft | 290 kts | 125° |
| 2026-04-20 18:34 | 24.86853 | -77.20537 | 8590 ft | 293 kts | 125° |
| 2026-04-20 18:35 | 24.85660 | -77.18701 | 9226 ft | 297 kts | 126° |
| 2026-04-20 18:35 | 24.84451 | -77.16839 | 9855 ft | 300 kts | 126° |
| 2026-04-20 18:35 | 24.83216 | -77.14942 | 10199 ft | 314 kts | 126° |
| 2026-04-20 18:35 | 24.81902 | -77.12925 | 10324 ft | 334 kts | 126° |
| 2026-04-20 18:36 | 24.80508 | -77.10784 | 10438 ft | 353 kts | 126° |
| 2026-04-20 18:36 | 24.79041 | -77.08527 | 10581 ft | 371 kts | 126° |
| 2026-04-20 18:36 | 24.77520 | -77.06186 | 10963 ft | 378 kts | 126° |
| 2026-04-20 18:36 | 24.75977 | -77.03815 | 11451 ft | 383 kts | 126° |
| 2026-04-20 18:37 | 24.74417 | -77.01420 | 11964 ft | 387 kts | 126° |
| 2026-04-20 18:37 | 24.72842 | -76.99002 | 12461 ft | 391 kts | 126° |
| 2026-04-20 18:37 | 24.71252 | -76.96561 | 12957 ft | 395 kts | 127° |
| 2026-04-20 18:37 | 24.69644 | -76.94093 | 13442 ft | 399 kts | 127° |
| 2026-04-20 18:38 | 24.68039 | -76.91634 | 13901 ft | 403 kts | 127° |
| 2026-04-20 18:38 | 24.66391 | -76.89113 | 14315 ft | 407 kts | 127° |
| 2026-04-20 18:38 | 24.64727 | -76.86581 | 14735 ft | 410 kts | 129° |
| 2026-04-20 18:38 | 24.62821 | -76.84253 | 15145 ft | 410 kts | 139° |
| 2026-04-20 18:39 | 24.60618 | -76.82239 | 15573 ft | 412 kts | 143° |
| 2026-04-20 18:39 | 24.58382 | -76.80253 | 15997 ft | 414 kts | 143° |
| 2026-04-20 18:39 | 24.56138 | -76.78249 | 16420 ft | 417 kts | 143° |
| 2026-04-20 18:39 | 24.53880 | -76.76230 | 16828 ft | 420 kts | 143° |
| 2026-04-20 18:40 | 24.51606 | -76.74195 | 17230 ft | 423 kts | 143° |
| 2026-04-20 18:40 | 24.49322 | -76.72151 | 17630 ft | 425 kts | 143° |
| 2026-04-20 18:40 | 24.47019 | -76.70092 | 18033 ft | 428 kts | 143° |
| 2026-04-20 18:40 | 24.44700 | -76.68020 | 18418 ft | 431 kts | 143° |
| 2026-04-20 18:41 | 24.42395 | -76.65965 | 18758 ft | 433 kts | 143° |
| 2026-04-20 18:41 | 24.40049 | -76.63880 | 19070 ft | 436 kts | 143° |
| 2026-04-20 18:41 | 24.37651 | -76.61753 | 19389 ft | 439 kts | 143° |
| 2026-04-20 18:41 | 24.35269 | -76.59635 | 19710 ft | 442 kts | 143° |
| 2026-04-20 18:42 | 24.32874 | -76.57500 | 20022 ft | 445 kts | 143° |
| 2026-04-20 18:42 | 24.30500 | -76.55383 | 20340 ft | 447 kts | 143° |
| 2026-04-20 18:42 | 24.28078 | -76.53224 | 20653 ft | 450 kts | 143° |
| 2026-04-20 18:42 | 24.25641 | -76.51057 | 20975 ft | 453 kts | 143° |
| 2026-04-20 18:43 | 24.23182 | -76.48876 | 21283 ft | 455 kts | 143° |
| 2026-04-20 18:43 | 24.20710 | -76.46686 | 21592 ft | 458 kts | 143° |
| 2026-04-20 18:43 | 24.18214 | -76.44476 | 21901 ft | 461 kts | 143° |
| 2026-04-20 18:43 | 24.15714 | -76.42262 | 22203 ft | 464 kts | 143° |
| 2026-04-20 18:44 | 24.13194 | -76.40033 | 22516 ft | 466 kts | 143° |
| 2026-04-20 18:44 | 24.10665 | -76.37794 | 22815 ft | 469 kts | 143° |
| 2026-04-20 18:44 | 24.08122 | -76.35540 | 23109 ft | 471 kts | 143° |
| 2026-04-20 18:44 | 24.05600 | -76.33304 | 23396 ft | 474 kts | 143° |
| 2026-04-20 18:45 | 24.03032 | -76.31029 | 23666 ft | 476 kts | 143° |
| 2026-04-20 18:45 | 24.00445 | -76.28739 | 23901 ft | 479 kts | 144° |
| 2026-04-20 18:45 | 23.97849 | -76.26448 | 24149 ft | 481 kts | 144° |
| 2026-04-20 18:45 | 23.95242 | -76.24148 | 24405 ft | 483 kts | 144° |
| 2026-04-20 18:46 | 23.92623 | -76.21842 | 24645 ft | 485 kts | 144° |
| 2026-04-20 18:46 | 23.89992 | -76.19523 | 24893 ft | 487 kts | 144° |
| 2026-04-20 18:46 | 23.87347 | -76.17189 | 25144 ft | 489 kts | 144° |
| 2026-04-20 18:46 | 23.84698 | -76.14855 | 25398 ft | 490 kts | 144° |
| 2026-04-20 18:47 | 23.82033 | -76.12510 | 25654 ft | 492 kts | 144° |
| 2026-04-20 18:47 | 23.79359 | -76.10158 | 25906 ft | 494 kts | 144° |
| 2026-04-20 18:47 | 23.76705 | -76.07826 | 26147 ft | 496 kts | 144° |
| 2026-04-20 18:47 | 23.74008 | -76.05458 | 26366 ft | 498 kts | 144° |
| 2026-04-20 18:48 | 23.71305 | -76.03087 | 26619 ft | 499 kts | 144° |
| 2026-04-20 18:48 | 23.68598 | -76.00713 | 26854 ft | 501 kts | 144° |
| 2026-04-20 18:48 | 23.65873 | -75.98322 | 27092 ft | 503 kts | 144° |
| 2026-04-20 18:48 | 23.63139 | -75.95920 | 27321 ft | 505 kts | 144° |
| 2026-04-20 18:49 | 23.60397 | -75.93515 | 27554 ft | 507 kts | 144° |
| 2026-04-20 18:49 | 23.57644 | -75.91103 | 27785 ft | 509 kts | 144° |
| 2026-04-20 18:49 | 23.54881 | -75.88685 | 28016 ft | 511 kts | 144° |
| 2026-04-20 18:49 | 23.52104 | -75.86255 | 28235 ft | 512 kts | 144° |
| 2026-04-20 18:50 | 23.49331 | -75.83827 | 28541 ft | 512 kts | 144° |
| 2026-04-20 18:50 | 23.46557 | -75.81398 | 28865 ft | 511 kts | 144° |
| 2026-04-20 18:50 | 23.43785 | -75.78974 | 29166 ft | 511 kts | 144° |
| 2026-04-20 18:50 | 23.41014 | -75.76554 | 29437 ft | 511 kts | 144° |
| 2026-04-20 18:51 | 23.38245 | -75.74137 | 29714 ft | 511 kts | 144° |
| 2026-04-20 18:51 | 23.35470 | -75.71719 | 29998 ft | 511 kts | 144° |
| 2026-04-20 18:51 | 23.32696 | -75.69301 | 30259 ft | 510 kts | 144° |
| 2026-04-20 18:51 | 23.29925 | -75.66888 | 30493 ft | 510 kts | 144° |
| 2026-04-20 18:52 | 23.27152 | -75.64476 | 30712 ft | 511 kts | 144° |
| 2026-04-20 18:52 | 23.24378 | -75.62062 | 30942 ft | 511 kts | 144° |
| 2026-04-20 18:52 | 23.21601 | -75.59645 | 31169 ft | 511 kts | 144° |
| 2026-04-20 18:52 | 23.18826 | -75.57232 | 31399 ft | 511 kts | 144° |
| 2026-04-20 18:53 | 23.16049 | -75.54821 | 31641 ft | 511 kts | 145° |
| 2026-04-20 18:53 | 23.13271 | -75.52410 | 31847 ft | 511 kts | 145° |
| 2026-04-20 18:53 | 23.10487 | -75.49993 | 31337 ft | 512 kts | 145° |
| 2026-04-20 18:53 | 23.07686 | -75.47567 | 31061 ft | 519 kts | 144° |
| 2026-04-20 18:54 | 23.02041 | -75.42683 | 31070 ft | 525 kts | 144° |
| 2026-04-20 18:54 | 22.96332 | -75.37740 | 31070 ft | 525 kts | 144° |
| 2026-04-20 18:55 | 22.90617 | -75.32784 | 31071 ft | 525 kts | 144° |
| 2026-04-20 18:55 | 22.84902 | -75.27844 | 31070 ft | 525 kts | 144° |
| 2026-04-20 18:56 | 22.79180 | -75.22917 | 31070 ft | 525 kts | 144° |
| 2026-04-20 18:56 | 22.73455 | -75.17987 | 31070 ft | 525 kts | 144° |
| 2026-04-20 18:57 | 22.67741 | -75.13064 | 31070 ft | 525 kts | 144° |
| 2026-04-20 18:57 | 22.62016 | -75.08144 | 31068 ft | 525 kts | 144° |
| 2026-04-20 18:58 | 22.56314 | -75.03256 | 31355 ft | 517 kts | 144° |
| 2026-04-20 18:58 | 22.53504 | -75.00840 | 31086 ft | 513 kts | 144° |
| 2026-04-20 18:58 | 22.50722 | -74.98441 | 31057 ft | 511 kts | 144° |
| 2026-04-20 18:59 | 22.45091 | -74.93617 | 31067 ft | 522 kts | 144° |
| 2026-04-20 18:59 | 22.39379 | -74.88735 | 31065 ft | 524 kts | 144° |
| 2026-04-20 19:00 | 22.33700 | -74.83879 | 31067 ft | 525 kts | 144° |
| 2026-04-20 19:00 | 22.27924 | -74.78940 | 31068 ft | 526 kts | 144° |
| 2026-04-20 19:01 | 22.22229 | -74.74070 | 31062 ft | 526 kts | 144° |
| 2026-04-20 19:01 | 22.16491 | -74.69178 | 31062 ft | 525 kts | 144° |
| 2026-04-20 19:02 | 22.10751 | -74.64303 | 31057 ft | 525 kts | 144° |
| 2026-04-20 19:02 | 22.05036 | -74.59441 | 31288 ft | 517 kts | 144° |
| 2026-04-20 19:03 | 22.02232 | -74.57046 | 31719 ft | 512 kts | 144° |
| 2026-04-20 19:03 | 21.99443 | -74.54672 | 32038 ft | 510 kts | 144° |
| 2026-04-20 19:03 | 21.96656 | -74.52304 | 32315 ft | 510 kts | 144° |
| 2026-04-20 19:03 | 21.93868 | -74.49938 | 32575 ft | 509 kts | 144° |
| 2026-04-20 19:04 | 21.91088 | -74.47582 | 32831 ft | 509 kts | 144° |
| 2026-04-20 19:04 | 21.88307 | -74.45224 | 33077 ft | 508 kts | 144° |
| 2026-04-20 19:04 | 21.85529 | -74.42868 | 33323 ft | 508 kts | 144° |
| 2026-04-20 19:04 | 21.82751 | -74.40516 | 33568 ft | 508 kts | 145° |
| 2026-04-20 19:05 | 21.79973 | -74.38171 | 33808 ft | 507 kts | 145° |
| 2026-04-20 19:05 | 21.77195 | -74.35822 | 34042 ft | 507 kts | 145° |
| 2026-04-20 19:05 | 21.74422 | -74.33479 | 34284 ft | 506 kts | 144° |
| 2026-04-20 19:05 | 21.71661 | -74.31145 | 34525 ft | 504 kts | 144° |
| 2026-04-20 19:06 | 21.68934 | -74.28842 | 34722 ft | 504 kts | 144° |
| 2026-04-20 19:06 | 21.66182 | -74.26517 | 34937 ft | 503 kts | 144° |
| 2026-04-20 19:06 | 21.60677 | -74.21868 | 35053 ft | 502 kts | 144° |
| 2026-04-20 19:07 | 21.55187 | -74.17240 | 35048 ft | 501 kts | 144° |
| 2026-04-20 19:07 | 21.49705 | -74.12619 | 35047 ft | 501 kts | 144° |
| 2026-04-20 19:08 | 21.41477 | -74.05707 | 35044 ft | 500 kts | 144° |
| 2026-04-20 19:09 | 21.35996 | -74.01098 | 35045 ft | 501 kts | 144° |
| 2026-04-20 19:09 | 21.30511 | -73.96496 | 35045 ft | 500 kts | 144° |
| 2026-04-20 19:10 | 21.25057 | -73.91927 | 35046 ft | 500 kts | 144° |
| 2026-04-20 19:10 | 21.19573 | -73.87326 | 35052 ft | 500 kts | 144° |
| 2026-04-20 19:11 | 21.14083 | -73.82738 | 35050 ft | 500 kts | 144° |
| 2026-04-20 19:11 | 21.08602 | -73.78156 | 35044 ft | 500 kts | 144° |
| 2026-04-20 19:12 | 21.03060 | -73.73527 | 35034 ft | 509 kts | 144° |
| 2026-04-20 19:12 | 20.97426 | -73.68837 | 35031 ft | 515 kts | 146° |
| 2026-04-20 19:13 | 20.91284 | -73.64993 | 35034 ft | 511 kts | 155° |
| 2026-04-20 19:13 | 20.84986 | -73.61447 | 35031 ft | 512 kts | 155° |
| 2026-04-20 19:14 | 20.78729 | -73.57918 | 35034 ft | 512 kts | 155° |
| 2026-04-20 19:14 | 20.72420 | -73.54358 | 35038 ft | 512 kts | 155° |
| 2026-04-20 19:15 | 20.66103 | -73.50806 | 35039 ft | 513 kts | 155° |
| 2026-04-20 19:15 | 20.60849 | -73.47848 | 35041 ft | 513 kts | 155° |
| 2026-04-20 19:16 | 20.54532 | -73.44289 | 35042 ft | 513 kts | 155° |
| 2026-04-20 19:16 | 20.48220 | -73.40739 | 35042 ft | 513 kts | 155° |
| 2026-04-20 19:17 | 20.41906 | -73.37194 | 35040 ft | 513 kts | 155° |
| 2026-04-20 19:17 | 20.35593 | -73.33657 | 35038 ft | 512 kts | 155° |
| 2026-04-20 19:18 | 20.29275 | -73.30121 | 35023 ft | 512 kts | 155° |
| 2026-04-20 19:18 | 20.23004 | -73.26614 | 35022 ft | 512 kts | 155° |
| 2026-04-20 19:19 | 20.16690 | -73.23091 | 34649 ft | 511 kts | 155° |
| 2026-04-20 19:19 | 20.13536 | -73.21328 | 33885 ft | 512 kts | 155° |
| 2026-04-20 19:19 | 20.10372 | -73.19562 | 33022 ft | 514 kts | 155° |
| 2026-04-20 19:19 | 20.07195 | -73.17789 | 32156 ft | 516 kts | 155° |
| 2026-04-20 19:20 | 20.04004 | -73.16008 | 31292 ft | 519 kts | 155° |
| 2026-04-20 19:20 | 20.00809 | -73.14229 | 30724 ft | 515 kts | 155° |
| 2026-04-20 19:20 | 19.97655 | -73.12474 | 30240 ft | 509 kts | 155° |
| 2026-04-20 19:20 | 19.94522 | -73.10729 | 29536 ft | 509 kts | 155° |
| 2026-04-20 19:21 | 19.91390 | -73.08987 | 28765 ft | 508 kts | 155° |
| 2026-04-20 19:21 | 19.88257 | -73.07244 | 28146 ft | 505 kts | 154° |
| 2026-04-20 19:21 | 19.85169 | -73.05513 | 27628 ft | 499 kts | 154° |
| 2026-04-20 19:21 | 19.82119 | -73.03790 | 27100 ft | 494 kts | 154° |
| 2026-04-20 19:22 | 19.79100 | -73.02084 | 26569 ft | 489 kts | 154° |
| 2026-04-20 19:22 | 19.76111 | -73.00395 | 26042 ft | 484 kts | 153° |
| 2026-04-20 19:22 | 19.73172 | -72.98684 | 25545 ft | 479 kts | 152° |
| 2026-04-20 19:22 | 19.70289 | -72.96950 | 25053 ft | 474 kts | 152° |
| 2026-04-20 19:23 | 19.67476 | -72.95229 | 24569 ft | 470 kts | 151° |
| 2026-04-20 19:23 | 19.64664 | -72.93500 | 24063 ft | 465 kts | 151° |
| 2026-04-20 19:23 | 19.61834 | -72.91773 | 23565 ft | 461 kts | 151° |
| 2026-04-20 19:23 | 19.59099 | -72.90119 | 23017 ft | 456 kts | 151° |
| 2026-04-20 19:24 | 19.56351 | -72.88470 | 22470 ft | 451 kts | 152° |
| 2026-04-20 19:24 | 19.53629 | -72.86842 | 21928 ft | 446 kts | 151° |
| 2026-04-20 19:24 | 19.50940 | -72.85234 | 21384 ft | 442 kts | 151° |
| 2026-04-20 19:24 | 19.48273 | -72.83640 | 20842 ft | 437 kts | 151° |
| 2026-04-20 19:25 | 19.45633 | -72.82061 | 20316 ft | 433 kts | 151° |
| 2026-04-20 19:25 | 19.43024 | -72.80500 | 19805 ft | 429 kts | 151° |
| 2026-04-20 19:25 | 19.40463 | -72.78968 | 19295 ft | 425 kts | 151° |
| 2026-04-20 19:25 | 19.37897 | -72.77434 | 18790 ft | 422 kts | 151° |
| 2026-04-20 19:26 | 19.35352 | -72.75914 | 18288 ft | 418 kts | 151° |
| 2026-04-20 19:26 | 19.32831 | -72.74406 | 17738 ft | 414 kts | 150° |
| 2026-04-20 19:26 | 19.30335 | -72.72911 | 17189 ft | 411 kts | 150° |
| 2026-04-20 19:26 | 19.27855 | -72.71428 | 16672 ft | 407 kts | 150° |
| 2026-04-20 19:27 | 19.25399 | -72.69960 | 16172 ft | 404 kts | 150° |
| 2026-04-20 19:27 | 19.22963 | -72.68506 | 15659 ft | 401 kts | 150° |
| 2026-04-20 19:27 | 19.20543 | -72.67061 | 15217 ft | 397 kts | 150° |
| 2026-04-20 19:27 | 19.18140 | -72.65630 | 15025 ft | 396 kts | 150° |
| 2026-04-20 19:28 | 19.15748 | -72.64205 | 15043 ft | 395 kts | 150° |
| 2026-04-20 19:28 | 19.13358 | -72.62778 | 15040 ft | 394 kts | 150° |
| 2026-04-20 19:28 | 19.10972 | -72.61337 | 14932 ft | 393 kts | 148° |
| 2026-04-20 19:28 | 19.08799 | -72.59615 | 14470 ft | 389 kts | 137° |
| 2026-04-20 19:29 | 19.07000 | -72.57515 | 14207 ft | 376 kts | 127° |
| 2026-04-20 19:29 | 19.05451 | -72.55427 | 14077 ft | 347 kts | 128° |
| 2026-04-20 19:29 | 19.03997 | -72.53495 | 13784 ft | 327 kts | 128° |
| 2026-04-20 19:29 | 19.02596 | -72.51647 | 13167 ft | 318 kts | 128° |
| 2026-04-20 19:30 | 19.01222 | -72.49841 | 12504 ft | 312 kts | 129° |
| 2026-04-20 19:30 | 18.99875 | -72.48069 | 11829 ft | 307 kts | 128° |
| 2026-04-20 19:30 | 18.98551 | -72.46324 | 11167 ft | 302 kts | 128° |
| 2026-04-20 19:30 | 18.97241 | -72.44596 | 10531 ft | 302 kts | 128° |
| 2026-04-20 19:31 | 18.95938 | -72.42874 | 10227 ft | 299 kts | 128° |
| 2026-04-20 19:31 | 18.94662 | -72.41190 | 9909 ft | 296 kts | 128° |
| 2026-04-20 19:31 | 18.93381 | -72.39499 | 9546 ft | 294 kts | 128° |
| 2026-04-20 19:31 | 18.92115 | -72.37825 | 8977 ft | 289 kts | 128° |
| 2026-04-20 19:32 | 18.90867 | -72.36171 | 8254 ft | 288 kts | 128° |
| 2026-04-20 19:32 | 18.89617 | -72.34514 | 7886 ft | 287 kts | 128° |
| 2026-04-20 19:32 | 18.88371 | -72.32866 | 7543 ft | 284 kts | 128° |
| 2026-04-20 19:32 | 18.87140 | -72.31241 | 7202 ft | 282 kts | 128° |
| 2026-04-20 19:33 | 18.85918 | -72.29626 | 6851 ft | 281 kts | 129° |
| 2026-04-20 19:33 | 18.84705 | -72.28025 | 6719 ft | 279 kts | 129° |
| 2026-04-20 19:33 | 18.83491 | -72.26422 | 6727 ft | 280 kts | 129° |
| 2026-04-20 19:33 | 18.82272 | -72.24813 | 6730 ft | 280 kts | 129° |
| 2026-04-20 19:34 | 18.81056 | -72.23209 | 6727 ft | 280 kts | 129° |
| 2026-04-20 19:34 | 18.79857 | -72.21627 | 6727 ft | 279 kts | 129° |
| 2026-04-20 19:34 | 18.78643 | -72.20026 | 6650 ft | 278 kts | 129° |
| 2026-04-20 19:34 | 18.77437 | -72.18436 | 6359 ft | 275 kts | 129° |
| 2026-04-20 19:35 | 18.76268 | -72.16833 | 6324 ft | 276 kts | 127° |
| 2026-04-20 19:35 | 18.75117 | -72.15206 | 6327 ft | 277 kts | 127° |
| 2026-04-20 19:35 | 18.73967 | -72.13583 | 6324 ft | 273 kts | 127° |
| 2026-04-20 19:35 | 18.72660 | -72.12242 | 6318 ft | 256 kts | 151° |
| 2026-04-20 19:36 | 18.70993 | -72.11639 | 6334 ft | 255 kts | 168° |
| 2026-04-20 19:36 | 18.69251 | -72.11281 | 6331 ft | 255 kts | 169° |
| 2026-04-20 19:36 | 18.67510 | -72.10972 | 6088 ft | 251 kts | 171° |
| 2026-04-20 19:36 | 18.65824 | -72.10690 | 5844 ft | 242 kts | 171° |
| 2026-04-20 19:37 | 18.64168 | -72.10411 | 5497 ft | 240 kts | 169° |
| 2026-04-20 19:37 | 18.62660 | -72.09734 | 5130 ft | 237 kts | 140° |
| 2026-04-20 19:37 | 18.61720 | -72.08337 | 4795 ft | 236 kts | 112° |
| 2026-04-20 19:37 | 18.61242 | -72.06689 | 4485 ft | 232 kts | 105° |
| 2026-04-20 19:38 | 18.60843 | -72.05059 | 4214 ft | 228 kts | 105° |
| 2026-04-20 19:38 | 18.60469 | -72.03477 | 4010 ft | 220 kts | 105° |
| 2026-04-20 19:38 | 18.60117 | -72.01967 | 3831 ft | 206 kts | 105° |
| 2026-04-20 19:38 | 18.59783 | -72.00505 | 3448 ft | 204 kts | 104° |
| 2026-04-20 19:39 | 18.59360 | -71.99090 | 3030 ft | 202 kts | 122° |
| 2026-04-20 19:39 | 18.58337 | -71.98144 | 2636 ft | 197 kts | 160° |
| 2026-04-20 19:39 | 18.56999 | -71.98065 | 2227 ft | 194 kts | 194° |
| 2026-04-20 19:39 | 18.55918 | -71.98859 | 2042 ft | 195 kts | 236° |
| 2026-04-20 19:40 | 18.55564 | -72.00235 | 2046 ft | 200 kts | 275° |
| 2026-04-20 19:40 | 18.56033 | -72.01605 | 2058 ft | 201 kts | 295° |
| 2026-04-20 19:40 | 18.56625 | -72.02903 | 2057 ft | 186 kts | 295° |
| 2026-04-20 19:40 | 18.57166 | -72.04088 | 2037 ft | 175 kts | 295° |
| 2026-04-20 19:41 | 18.57677 | -72.05209 | 2043 ft | 164 kts | 295° |
| 2026-04-20 19:41 | 18.58163 | -72.06274 | 2081 ft | 159 kts | 295° |
| 2026-04-20 19:41 | 18.58597 | -72.07334 | 2059 ft | 157 kts | 289° |
| 2026-04-20 19:41 | 18.58767 | -72.08454 | 2051 ft | 155 kts | 269° |
| 2026-04-20 19:42 | 18.58730 | -72.09571 | 2047 ft | 154 kts | 268° |
| 2026-04-20 19:42 | 18.58718 | -72.10700 | 2043 ft | 156 kts | 269° |
| 2026-04-20 19:42 | 18.58706 | -72.11891 | 2048 ft | 167 kts | 268° |
| 2026-04-20 19:42 | 18.58683 | -72.13120 | 1990 ft | 169 kts | 268° |
| 2026-04-20 19:43 | 18.58653 | -72.14373 | 2019 ft | 175 kts | 268° |
| 2026-04-20 19:43 | 18.58614 | -72.15687 | 2031 ft | 183 kts | 268° |
| 2026-04-20 19:43 | 18.58568 | -72.17014 | 2022 ft | 172 kts | 268° |
| 2026-04-20 19:43 | 18.58521 | -72.18230 | 1997 ft | 162 kts | 267° |
| 2026-04-20 19:44 | 18.58473 | -72.19399 | 1760 ft | 157 kts | 267° |
| 2026-04-20 19:44 | 18.58423 | -72.20539 | 1540 ft | 155 kts | 267° |
| 2026-04-20 19:44 | 18.58372 | -72.21669 | 1335 ft | 154 kts | 267° |
| 2026-04-20 19:44 | 18.58320 | -72.22792 | 1127 ft | 153 kts | 267° |
| 2026-04-20 19:45 | 18.58267 | -72.23911 | 939 ft | 153 kts | 267° |
| 2026-04-20 19:45 | 18.58218 | -72.25024 | 759 ft | 151 kts | 268° |
| 2026-04-20 19:45 | 18.58170 | -72.26124 | 524 ft | 149 kts | 268° |
| 2026-04-20 19:45 | 18.58110 | -72.27202 | 290 ft | 146 kts | 268° |
| 2026-04-20 19:46 | 18.58053 | -72.28261 | 116 ft | 138 kts | 269° |
| 2026-04-20 19:46 | 18.58018 | -72.29083 | 101 ft | 77 kts | 266° |
| 2026-04-20 19:46 | 18.57990 | -72.29415 | 96 ft | 18 kts | 250° |
| 2026-04-20 19:46 | 18.57894 | -72.29465 | 95 ft | 16 kts | 180° |
| 2026-04-20 19:47 | 18.57796 | -72.29460 | 96 ft | 6 kts | 177° |
| 2026-04-20 19:47 | 18.57758 | -72.29458 | 96 ft | 5 kts | 177° |
| 2026-04-20 19:47 | 18.57736 | -72.29457 | 97 ft | 7 kts | 177° |
| 2026-04-20 19:47 | 18.57719 | -72.29456 | 96 ft | 1 kts | 179° |
| 2026-04-20 19:48 | 18.57694 | -72.29502 | 95 ft | 17 kts | 260° |
| 2026-04-20 19:48 | 18.57659 | -72.29587 | 94 ft | 2 kts | 196° |
| 2026-04-20 19:48 | 18.57650 | -72.29605 | 95 ft | 6 kts | 260° |
| 2026-04-20 19:48 | 18.57637 | -72.29640 | 95 ft | 1 kts | 205° |
| 2026-04-20 19:49 | 18.57612 | -72.29632 | 95 ft | 3 kts | 168° |
| 2026-04-20 19:49 | 18.57623 | -72.29633 | 95 ft | 3 kts | 194° |
| 2026-04-20 19:50 | 18.57649 | -72.29621 | 95 ft | 5 kts | 208° |
| 2026-04-20 19:50 | 18.57633 | -72.29618 | 95 ft | 9 kts | 180° |
| 2026-04-20 19:50 | 18.57609 | -72.29618 | 93 ft | 0 kts | 179° |